San Juan Capistrano, California
Current Conditions -  °F | °C
As of 4:53 AM on Friday 24 Oct 2014 (Local Time) from KSNA Reporting Station
Clear Clear  
Wind Chill: 63°   Ceiling: Unl
Heat Index: 63°   Visibility: 10mi
Dew Point: 53°   Wind: 0mph
Humidity: 70%   Direction: NA
Pressure: 29.95"   Gusts: NA
Location:  33.5°N, 117.66°W
Report Text: KSNA 241153Z AUTO 00000KT 10SM CLR 17/12 A2995 RMK AO2 SLP140 70001 T01720117 10211 20172 56005 TSNO
Loading
Personal Weather Stations






























Interactive Weather Map New forecast layout! Learn more

10-Day Weather Forecast

Advertisements
Track Severe Weather on mobile